Time;durP1;ratioP1;P1;durP2;ratioP2;P2;SDS_P1;SDS_P2;PMS_P1;PMS_P2;Temp;Humidity;BMP_temperature;BMP_pressure;BME280_temperature;BME280_humidity;BME280_pressure;Samples;Min_cycle;Max_cycle;Signal;HPM_P1;HPM_P2
2022/08/07 00:00:13;;;;;;;6.10;3.40;;;;;;;15.91;72.20;99546.63;88517;1272;22617;-71
2022/08/07 00:02:34;;;;;;;6.50;3.50;;;;;;;15.91;72.22;99547.53;88410;1271;99373;-71
2022/08/07 00:04:36;;;;;;;6.80;3.40;;;;;;;15.90;72.25;99542.48;88471;1271;22560;-72
2022/08/07 00:06:38;;;;;;;9.70;3.50;;;;;;;15.90;72.31;99546.90;88407;1274;26242;-72
2022/08/07 00:08:40;;;;;;;4.30;3.70;;;;;;;15.90;72.27;99544.08;88411;1274;99751;-73
2022/08/07 00:10:42;;;;;;;4.40;3.90;;;;;;;15.90;72.29;99540.52;88616;1271;22646;-71
2022/08/07 00:12:43;;;;;;;4.90;4.00;;;;;;;15.90;72.22;99541.35;88503;1271;26103;-72
2022/08/07 00:14:45;;;;;;;8.60;4.00;;;;;;;15.90;72.21;99539.77;88432;1274;99077;-71
2022/08/07 00:16:47;;;;;;;4.40;4.00;;;;;;;15.89;72.34;99544.12;88522;1274;22561;-71
2022/08/07 00:18:48;;;;;;;4.50;4.10;;;;;;;15.86;72.36;99548.50;88463;1271;24332;-72
2022/08/07 00:20:57;;;;;;;4.70;3.50;;;;;;;15.85;72.36;99548.75;88509;1271;98985;-72
2022/08/07 00:22:58;;;;;;;6.00;4.20;;;;;;;15.83;72.42;99544.13;88632;1271;22600;-73
2022/08/07 00:25:00;;;;;;;5.00;3.80;;;;;;;15.83;72.47;99543.77;88386;1274;99976;-72
2022/08/07 00:27:02;;;;;;;4.00;3.50;;;;;;;15.78;72.41;99544.02;88510;1271;22722;-71
2022/08/07 00:29:04;;;;;;;4.40;3.40;;;;;;;15.73;72.51;99545.90;88592;1271;24448;-71
2022/08/07 00:31:10;;;;;;;6.20;4.00;;;;;;;15.70;72.52;99543.61;88449;1271;100758;-73
2022/08/07 00:33:12;;;;;;;8.50;3.70;;;;;;;15.69;72.67;99547.05;88453;1274;22579;-72
2022/08/07 00:35:14;;;;;;;4.70;3.20;;;;;;;15.69;72.72;99546.70;88585;1271;22663;-71
2022/08/07 00:37:16;;;;;;;8.10;4.30;;;;;;;15.70;72.75;99548.22;88451;1272;99099;-72
2022/08/07 00:39:18;;;;;;;5.00;3.40;;;;;;;15.70;72.69;99547.48;88608;1271;23360;-72
2022/08/07 00:41:31;;;;;;;4.70;3.40;;;;;;;15.72;72.70;99547.92;88475;1274;22722;-72
2022/08/07 00:43:33;;;;;;;9.10;4.90;;;;;;;15.73;72.74;99551.02;88522;1274;100112;-72
2022/08/07 00:45:35;;;;;;;6.10;3.30;;;;;;;15.76;72.69;99555.30;88652;1271;22710;-72
2022/08/07 00:47:37;;;;;;;8.50;3.40;;;;;;;15.78;72.77;99561.03;88543;1272;23679;-71
2022/08/07 00:49:39;;;;;;;3.60;3.00;;;;;;;15.81;72.68;99561.39;88285;1274;99230;-71
2022/08/07 00:51:41;;;;;;;7.90;3.70;;;;;;;15.84;72.78;99556.42;88524;1272;22571;-72
2022/08/07 00:53:43;;;;;;;4.50;3.40;;;;;;;15.88;72.67;99558.16;88512;1273;22561;-71
2022/08/07 00:55:45;;;;;;;4.60;3.20;;;;;;;15.87;72.69;99552.70;88448;1274;99109;-71
2022/08/07 00:57:46;;;;;;;5.40;3.40;;;;;;;15.85;72.69;99552.15;88414;1274;23537;-70
2022/08/07 00:59:48;;;;;;;4.30;3.20;;;;;;;15.82;72.73;99556.20;88533;1271;22561;-71
2022/08/07 01:01:50;;;;;;;4.70;3.40;;;;;;;15.79;72.75;99554.05;88439;1271;99535;-71
2022/08/07 01:03:51;;;;;;;3.30;3.00;;;;;;;15.77;72.82;99556.83;88629;1271;22705;-71
2022/08/07 01:05:54;;;;;;;7.90;3.20;;;;;;;15.76;72.78;99558.31;88431;1275;22660;-72
2022/08/07 01:07:56;;;;;;;4.40;3.70;;;;;;;15.75;72.85;99558.90;88375;1274;98493;-72
2022/08/07 01:09:58;;;;;;;4.60;3.50;;;;;;;15.71;72.89;99555.76;88569;1271;22673;-72
2022/08/07 01:12:00;;;;;;;7.00;3.70;;;;;;;15.71;72.94;99558.98;88549;1274;23340;-72
2022/08/07 01:14:03;;;;;;;6.60;4.00;;;;;;;15.71;73.10;99552.20;88380;1273;100707;-72
2022/08/07 01:16:08;;;;;;;5.80;3.80;;;;;;;15.70;72.95;99550.36;88498;1274;24851;-72
2022/08/07 01:18:10;;;;;;;5.00;3.90;;;;;;;15.67;73.08;99554.23;88502;1271;22663;-71
2022/08/07 01:20:12;;;;;;;4.20;3.80;;;;;;;15.64;73.12;99555.11;88464;1274;99310;-73
2022/08/07 01:22:14;;;;;;;6.30;3.70;;;;;;;15.61;73.13;99559.54;88491;1274;24246;-71
2022/08/07 01:24:17;;;;;;;9.60;3.80;;;;;;;15.58;73.16;99561.00;88543;1271;22561;-70
2022/08/07 01:26:21;;;;;;;5.00;3.90;;;;;;;15.56;73.12;99562.87;88448;1271;99434;-71
2022/08/07 01:28:23;;;;;;;7.10;4.10;;;;;;;15.56;73.28;99560.95;88956;1271;22794;-72
2022/08/07 01:30:26;;;;;;;4.70;3.40;;;;;;;15.58;73.34;99556.38;88516;1271;25392;-72
2022/08/07 01:32:28;;;;;;;8.20;3.70;;;;;;;15.62;73.28;99554.75;88830;1271;99361;-72
2022/08/07 01:34:31;;;;;;;5.70;4.30;;;;;;;15.65;73.44;99550.84;88516;1271;22564;-73
2022/08/07 01:36:33;;;;;;;4.40;4.00;;;;;;;15.68;73.43;99552.08;88702;1271;24243;-73
2022/08/07 01:38:37;;;;;;;9.90;4.00;;;;;;;15.66;73.37;99548.23;88546;1274;98991;-72
2022/08/07 01:40:39;;;;;;;4.80;4.30;;;;;;;15.66;73.44;99546.88;88464;1274;22657;-72
2022/08/07 01:42:41;;;;;;;10.00;4.00;;;;;;;15.66;73.52;99545.60;88424;1274;22624;-72
2022/08/07 01:44:43;;;;;;;4.80;4.00;;;;;;;15.68;73.57;99543.89;88434;1275;99684;-72
2022/08/07 01:46:45;;;;;;;5.80;3.90;;;;;;;15.69;73.59;99547.72;88456;1271;22597;-72
2022/08/07 01:48:47;;;;;;;4.40;4.00;;;;;;;15.72;73.65;99544.89;87610;1271;1413296;-70
2022/08/07 01:50:55;;;;;;;5.00;3.90;;;;;;;15.76;73.59;99545.17;88554;1271;99651;-71
2022/08/07 01:53:00;;;;;;;5.10;4.10;;;;;;;15.81;73.65;99546.88;88509;1274;22645;-74
2022/08/07 01:55:02;;;;;;;6.30;4.00;;;;;;;15.84;73.64;99545.46;89119;1271;100406;-71
2022/08/07 01:57:22;;;;;;;5.20;3.70;;;;;;;15.86;73.64;99543.39;88370;1274;22580;-71
2022/08/07 01:59:34;;;;;;;7.00;3.90;;;;;;;15.88;73.65;99544.85;88507;1271;22706;-71
2022/08/07 02:01:43;;;;;;;11.10;3.70;;;;;;;15.90;73.61;99548.82;88731;1274;97887;-71
2022/08/07 02:03:52;;;;;;;3.90;3.40;;;;;;;15.92;73.70;99549.04;88477;1275;24428;-72
2022/08/07 02:05:58;;;;;;;3.80;3.50;;;;;;;15.89;73.63;99541.92;88479;1272;22632;-71
2022/08/07 02:08:05;;;;;;;3.60;3.30;;;;;;;15.94;73.72;99543.94;88362;1275;99464;-73
2022/08/07 02:10:07;;;;;;;4.90;3.70;;;;;;;15.95;73.80;99543.88;88387;1274;26753;-71
2022/08/07 02:12:17;;;;;;;5.00;3.60;;;;;;;15.94;73.69;99542.55;88388;1275;22669;-71
2022/08/07 02:14:20;;;;;;;10.60;4.10;;;;;;;15.94;73.77;99541.10;88478;1274;98896;-72
2022/08/07 02:16:23;;;;;;;6.50;3.30;;;;;;;15.95;73.72;99539.98;88672;1271;25427;-71
2022/08/07 02:18:28;;;;;;;6.50;3.70;;;;;;;15.96;73.85;99540.27;88457;1274;25067;-72
2022/08/07 02:20:32;;;;;;;8.10;3.60;;;;;;;15.92;73.83;99534.48;88460;1271;98941;-72
2022/08/07 02:22:37;;;;;;;4.00;3.60;;;;;;;15.97;73.70;99540.41;88477;1273;22591;-73
2022/08/07 02:24:44;;;;;;;12.40;3.90;;;;;;;15.98;73.78;99540.52;88522;1272;22775;-74
2022/08/07 02:26:48;;;;;;;12.60;3.60;;;;;;;16.00;73.79;99543.77;88422;1274;99106;-71
2022/08/07 02:28:51;;;;;;;6.70;3.70;;;;;;;16.00;73.84;99546.95;88381;1275;22568;-71
2022/08/07 02:30:55;;;;;;;9.80;3.50;;;;;;;16.00;73.74;99547.30;88445;1274;24357;-72
2022/08/07 02:32:59;;;;;;;4.40;3.50;;;;;;;15.99;73.69;99545.41;88426;1274;23263;-72
2022/08/07 02:35:03;;;;;;;4.30;3.40;;;;;;;15.99;73.83;99546.48;88450;1271;22679;-72
2022/08/07 02:37:07;;;;;;;8.90;4.00;;;;;;;15.99;73.82;99549.50;88543;1271;99305;-71
2022/08/07 02:39:10;;;;;;;3.90;3.50;;;;;;;15.99;73.84;99549.50;88568;1271;24273;-72
2022/08/07 02:41:13;;;;;;;5.10;3.80;;;;;;;15.98;73.82;99549.77;88544;1271;22558;-71
2022/08/07 02:43:15;;;;;;;5.40;3.40;;;;;;;15.96;73.88;99556.26;88619;1271;99185;-71
2022/08/07 02:45:19;;;;;;;12.90;4.00;;;;;;;15.94;73.88;99554.27;88390;1272;22636;-72
2022/08/07 02:47:21;;;;;;;6.70;3.80;;;;;;;15.92;73.95;99549.92;88596;1271;25861;-72
2022/08/07 02:49:24;;;;;;;6.70;3.80;;;;;;;15.91;73.94;99551.57;88488;1271;98945;-72
2022/08/07 02:51:31;;;;;;;5.70;3.70;;;;;;;15.90;73.92;99552.88;89015;1274;24211;-71
2022/08/07 02:53:36;;;;;;;15.90;3.70;;;;;;;15.91;74.06;99556.18;88566;1275;23560;-72
2022/08/07 02:55:43;;;;;;;5.00;3.60;;;;;;;15.90;74.08;99554.83;88428;1271;99121;-72
2022/08/07 02:57:46;;;;;;;4.20;3.70;;;;;;;15.90;74.03;99554.32;88465;1271;22687;-71
2022/08/07 02:59:50;;;;;;;3.90;3.60;;;;;;;15.91;74.04;99555.30;88490;1271;22716;-72
2022/08/07 03:01:53;;;;;;;5.60;3.80;;;;;;;15.92;74.05;99554.38;88351;1274;100530;-72
2022/08/07 03:03:56;;;;;;;13.40;3.80;;;;;;;15.93;74.00;99549.90;88725;1271;22821;-71
2022/08/07 03:05:59;;;;;;;4.90;3.60;;;;;;;15.93;74.06;99551.14;88596;1271;22629;-73
2022/08/07 03:08:03;;;;;;;5.70;4.10;;;;;;;15.92;74.19;99551.35;88405;1271;99617;-71
2022/08/07 03:10:06;;;;;;;4.50;3.90;;;;;;;15.92;74.12;99552.93;88445;1271;22558;-74
2022/08/07 03:12:09;;;;;;;7.10;3.90;;;;;;;15.93;74.13;99555.04;88508;1272;22577;-71
2022/08/07 03:14:12;;;;;;;5.40;3.90;;;;;;;15.92;74.05;99557.05;88343;1274;97822;-72
2022/08/07 03:16:13;;;;;;;9.10;3.90;;;;;;;15.91;74.08;99558.30;88506;1271;23099;-71
2022/08/07 03:18:16;;;;;;;6.90;4.10;;;;;;;15.92;74.09;99560.92;88545;1271;25203;-71
2022/08/07 03:20:18;;;;;;;8.70;4.00;;;;;;;15.91;74.15;99555.68;88393;1272;99425;-73
2022/08/07 03:22:22;;;;;;;10.00;3.90;;;;;;;15.90;74.19;99555.74;88572;1272;22759;-72
2022/08/07 03:24:26;;;;;;;4.40;3.20;;;;;;;15.88;74.14;99557.96;88655;1271;24229;-72
2022/08/07 03:26:30;;;;;;;20.20;3.90;;;;;;;15.88;74.19;99556.38;88578;1271;98969;-73
2022/08/07 03:28:34;;;;;;;3.90;3.50;;;;;;;15.90;74.24;99560.55;88502;1274;22627;-71
2022/08/07 03:30:37;;;;;;;4.10;3.50;;;;;;;15.89;74.19;99557.05;88579;1271;22551;-71
2022/08/07 03:32:41;;;;;;;4.40;3.70;;;;;;;15.86;74.13;99557.39;88947;1274;98836;-71
2022/08/07 03:34:47;;;;;;;13.30;3.80;;;;;;;15.81;74.20;99554.46;88613;1274;22619;-71
2022/08/07 03:36:51;;;;;;;6.00;3.90;;;;;;;15.79;74.20;99559.17;88566;1271;22915;-73
2022/08/07 03:39:00;;;;;;;8.70;4.30;;;;;;;15.77;74.21;99563.39;88665;1271;98945;-71
2022/08/07 03:41:02;;;;;;;9.40;3.90;;;;;;;15.76;74.25;99564.31;88574;1271;23375;-72
2022/08/07 03:43:04;;;;;;;4.40;3.80;;;;;;;15.75;74.32;99564.03;88525;1271;98254;-71
2022/08/07 03:45:07;;;;;;;10.60;4.00;;;;;;;15.73;74.33;99565.55;88616;1272;22728;-72
2022/08/07 03:47:11;;;;;;;5.40;4.20;;;;;;;15.72;74.39;99568.30;88471;1274;24307;-71
2022/08/07 03:49:13;;;;;;;3.90;3.60;;;;;;;15.71;74.44;99566.92;88402;1274;99299;-72
2022/08/07 03:51:15;;;;;;;10.40;4.30;;;;;;;15.71;74.38;99567.48;88567;1271;25408;-72
2022/08/07 03:53:19;;;;;;;5.30;4.10;;;;;;;15.70;74.38;99565.41;88651;1271;24219;-72
2022/08/07 03:55:21;;;;;;;4.60;4.20;;;;;;;15.69;74.39;99567.80;88426;1274;99252;-72
2022/08/07 03:57:25;;;;;;;4.30;3.90;;;;;;;15.65;74.47;99573.83;88485;1274;23732;-72
2022/08/07 03:59:28;;;;;;;4.60;3.90;;;;;;;15.64;74.50;99573.03;88474;1277;24274;-72
2022/08/07 04:01:31;;;;;;;8.80;4.00;;;;;;;15.62;74.48;99575.78;88475;1271;99136;-72
2022/08/07 04:03:33;;;;;;;6.20;4.00;;;;;;;15.61;74.47;99575.13;88488;1271;24226;-71
2022/08/07 04:05:35;;;;;;;5.80;4.30;;;;;;;15.61;74.52;99573.93;88513;1274;22612;-72
2022/08/07 04:07:37;;;;;;;11.40;4.30;;;;;;;15.62;74.52;99579.16;88242;1274;99142;-71
2022/08/07 04:09:39;;;;;;;7.10;4.20;;;;;;;15.63;74.66;99584.04;88532;1274;24148;-71
2022/08/07 04:11:43;;;;;;;6.70;3.90;;;;;;;15.65;74.60;99579.88;88524;1274;22892;-71
2022/08/07 04:13:45;;;;;;;10.30;4.40;;;;;;;15.67;74.58;99580.66;88420;1271;99255;-72
2022/08/07 04:15:47;;;;;;;4.70;4.20;;;;;;;15.69;74.56;99581.23;88514;1271;22680;-71
2022/08/07 04:17:49;;;;;;;7.70;4.70;;;;;;;15.69;74.55;99583.35;88484;1274;22571;-72
2022/08/07 04:19:51;;;;;;;12.60;4.30;;;;;;;15.70;74.62;99580.84;88520;1271;99250;-72
2022/08/07 04:21:53;;;;;;;5.40;3.90;;;;;;;15.69;74.51;99578.91;88630;1271;22555;-71
2022/08/07 04:23:55;;;;;;;4.20;3.80;;;;;;;15.70;74.60;99580.30;88556;1274;25310;-72
2022/08/07 04:25:57;;;;;;;4.70;4.10;;;;;;;15.69;74.53;99577.16;88504;1271;98947;-71
2022/08/07 04:27:59;;;;;;;4.40;4.00;;;;;;;15.69;74.60;99577.15;88477;1274;23030;-71
2022/08/07 04:30:03;;;;;;;10.10;4.30;;;;;;;15.72;74.68;99577.33;89041;1271;26181;-72
2022/08/07 04:32:10;;;;;;;10.40;4.40;;;;;;;15.75;74.56;99576.46;88510;1271;99189;-72
2022/08/07 04:34:12;;;;;;;10.00;4.40;;;;;;;15.77;74.51;99579.36;89094;1271;22637;-71
2022/08/07 04:36:14;;;;;;;8.20;4.20;;;;;;;15.78;74.47;99577.70;88529;1271;22718;-73
2022/08/07 04:38:16;;;;;;;4.60;4.00;;;;;;;15.81;74.60;99583.73;88438;1271;99473;-71
2022/08/07 04:40:18;;;;;;;6.00;4.40;;;;;;;15.82;74.51;99584.35;88514;1271;22793;-72
2022/08/07 04:42:20;;;;;;;7.60;3.90;;;;;;;15.83;74.47;99583.59;88520;1271;24360;-71
2022/08/07 04:44:22;;;;;;;4.40;4.10;;;;;;;15.86;74.45;99586.45;88536;1271;99119;-73
2022/08/07 04:46:46;;;;;;;5.20;4.00;;;;;;;15.90;74.41;99588.37;88526;1274;22752;-71
2022/08/07 04:49:15;;;;;;;7.30;3.90;;;;;;;15.93;74.46;99586.91;88446;1271;23160;-71
2022/08/07 04:51:41;;;;;;;10.80;4.30;;;;;;;15.94;74.57;99588.96;88483;1272;25626;-72
2022/08/07 04:54:09;;;;;;;7.30;3.80;;;;;;;15.97;74.50;99590.23;88589;1271;23121;-72
2022/08/07 04:56:22;;;;;;;3.90;3.60;;;;;;;16.00;74.51;99591.81;88457;1271;99652;-72
2022/08/07 04:58:32;;;;;;;5.20;3.90;;;;;;;16.02;74.47;99596.29;88440;1271;22582;-72
2022/08/07 05:00:47;;;;;;;4.30;3.50;;;;;;;16.05;74.43;99595.92;88516;1274;22550;-72
2022/08/07 05:03:18;;;;;;;5.40;4.00;;;;;;;16.08;74.37;99599.45;88505;1271;98993;-73
2022/08/07 05:05:36;;;;;;;4.30;3.50;;;;;;;16.08;74.44;99601.41;88460;1271;26413;-71
2022/08/07 05:07:52;;;;;;;3.70;3.40;;;;;;;16.05;74.40;99597.38;88354;1274;99217;-71
2022/08/07 05:10:02;;;;;;;4.70;4.20;;;;;;;16.08;74.29;99607.09;88473;1274;22567;-71
2022/08/07 05:12:09;;;;;;;16.80;4.10;;;;;;;16.07;74.31;99609.25;88523;1271;22661;-72
2022/08/07 05:14:24;;;;;;;5.20;3.60;;;;;;;16.05;74.37;99601.79;88432;1271;99294;-72
2022/08/07 05:16:30;;;;;;;5.90;3.80;;;;;;;16.06;74.26;99603.67;88522;1271;22661;-71
2022/08/07 05:18:44;;;;;;;4.00;3.50;;;;;;;16.07;74.32;99604.34;88486;1271;23939;-72
2022/08/07 05:20:49;;;;;;;4.40;3.70;;;;;;;16.08;74.27;99609.41;88278;1274;101783;-71
2022/08/07 05:22:55;;;;;;;7.50;4.00;;;;;;;16.08;74.33;99611.38;88426;1271;22610;-71
2022/08/07 05:24:58;;;;;;;15.90;3.80;;;;;;;16.06;74.33;99612.89;88445;1271;100794;-71
2022/08/07 05:27:01;;;;;;;3.50;3.20;;;;;;;16.06;74.21;99612.40;88734;1271;25457;-72
2022/08/07 05:29:07;;;;;;;3.70;3.30;;;;;;;16.05;74.32;99612.27;88525;1272;22721;-72
2022/08/07 05:31:12;;;;;;;4.20;3.90;;;;;;;16.03;74.30;99608.27;88583;1274;99310;-71
2022/08/07 05:33:15;;;;;;;6.20;3.30;;;;;;;16.03;74.25;99609.73;88894;1271;24357;-72
2022/08/07 05:35:18;;;;;;;7.40;3.40;;;;;;;16.03;74.33;99608.67;88313;1274;22654;-71
2022/08/07 05:37:21;;;;;;;14.00;3.70;;;;;;;16.03;74.27;99611.34;88491;1271;99327;-71
2022/08/07 05:39:24;;;;;;;10.00;3.80;;;;;;;16.03;74.30;99616.09;88483;1274;24402;-71
2022/08/07 05:41:27;;;;;;;6.20;3.30;;;;;;;16.04;74.28;99621.36;88491;1274;26441;-71
2022/08/07 05:43:29;;;;;;;5.90;3.30;;;;;;;16.04;74.44;99624.89;88345;1274;99327;-71
2022/08/07 05:45:32;;;;;;;4.30;3.60;;;;;;;16.05;74.29;99625.34;88596;1271;23716;-72
2022/08/07 05:47:34;;;;;;;4.90;3.70;;;;;;;16.06;74.29;99620.87;88639;1271;25455;-72
2022/08/07 05:49:36;;;;;;;9.60;3.60;;;;;;;16.08;74.26;99622.49;88478;1271;99111;-71
2022/08/07 05:51:41;;;;;;;9.00;3.60;;;;;;;16.10;74.33;99622.93;88751;1271;22559;-74
2022/08/07 05:53:43;;;;;;;7.50;3.30;;;;;;;16.10;74.36;99621.88;88496;1274;22554;-72
2022/08/07 05:55:45;;;;;;;11.90;3.30;;;;;;;16.13;74.27;99623.11;88453;1271;99649;-72
2022/08/07 05:57:49;;;;;;;4.50;3.20;;;;;;;16.15;74.27;99624.55;88437;1274;27892;-72
2022/08/07 05:59:53;;;;;;;9.00;3.30;;;;;;;16.18;74.29;99625.80;88561;1271;23377;-71
2022/08/07 06:01:57;;;;;;;5.80;3.50;;;;;;;16.20;74.23;99625.53;88479;1271;99435;-72
2022/08/07 06:04:00;;;;;;;7.30;3.50;;;;;;;16.22;74.22;99625.77;88539;1271;22496;-72
2022/08/07 06:06:02;;;;;;;6.30;3.40;;;;;;;16.25;74.27;99624.52;88440;1274;25912;-73
2022/08/07 06:08:05;;;;;;;7.50;3.40;;;;;;;16.27;74.24;99626.90;88446;1271;99644;-73
2022/08/07 06:10:09;;;;;;;6.60;3.90;;;;;;;16.29;74.26;99624.80;88427;1274;22551;-71
2022/08/07 06:12:11;;;;;;;7.00;3.20;;;;;;;16.31;74.22;99627.15;88549;1274;24211;-70
2022/08/07 06:14:12;;;;;;;6.50;3.60;;;;;;;16.34;74.15;99629.09;88293;1274;99076;-72
2022/08/07 06:16:15;;;;;;;10.20;4.90;;;;;;;16.37;74.24;99628.23;88381;1274;22720;-71
2022/08/07 06:18:17;;;;;;;7.40;3.30;;;;;;;16.40;74.22;99628.19;88654;1271;25375;-72
2022/08/07 06:20:19;;;;;;;5.90;3.50;;;;;;;16.43;74.08;99631.73;88408;1271;99556;-72
2022/08/07 06:22:22;;;;;;;7.10;3.10;;;;;;;16.44;74.09;99628.11;88601;1271;22590;-73
2022/08/07 06:24:24;;;;;;;5.50;3.50;;;;;;;16.47;74.00;99630.10;88715;1271;25646;-71
2022/08/07 06:26:28;;;;;;;10.90;3.50;;;;;;;16.50;74.13;99629.91;88560;1273;99572;-72
2022/08/07 06:28:30;;;;;;;5.90;3.70;;;;;;;16.52;74.06;99630.80;88634;1271;25579;-71
2022/08/07 06:30:33;;;;;;;5.90;4.10;;;;;;;16.51;73.90;99630.70;88715;1271;22562;-73
2022/08/07 06:32:36;;;;;;;4.30;3.30;;;;;;;16.49;73.87;99632.79;88750;1274;99668;-71
2022/08/07 06:34:38;;;;;;;6.30;3.50;;;;;;;16.48;73.89;99634.41;88847;1271;23033;-71
2022/08/07 06:36:41;;;;;;;7.00;3.00;;;;;;;16.50;74.02;99632.39;88879;1270;22638;-71
2022/08/07 06:38:44;;;;;;;3.40;2.50;;;;;;;16.51;73.90;99630.04;88826;1271;100779;-71
2022/08/07 06:40:50;;;;;;;5.10;2.30;;;;;;;16.54;73.49;99633.75;88798;1271;22582;-72
2022/08/07 06:42:52;;;;;;;3.00;2.50;;;;;;;16.55;73.20;99637.07;88672;1274;22790;-71
2022/08/07 06:44:57;;;;;;;7.00;2.70;;;;;;;16.53;73.08;99633.98;88582;1271;100016;-74
2022/08/07 06:46:59;;;;;;;4.50;2.70;;;;;;;16.57;73.24;99642.43;88742;1271;22652;-72
2022/08/07 06:49:00;;;;;;;8.00;3.40;;;;;;;16.58;73.05;99645.40;88589;1271;99286;-73
2022/08/07 06:51:08;;;;;;;5.60;3.60;;;;;;;16.53;73.04;99641.09;88631;1274;22592;-71
2022/08/07 06:53:13;;;;;;;6.90;3.30;;;;;;;16.51;73.15;99642.77;88690;1271;22549;-72
2022/08/07 06:55:19;;;;;;;7.90;4.00;;;;;;;16.50;73.20;99643.20;88669;1271;100708;-74
2022/08/07 06:57:21;;;;;;;11.90;4.60;;;;;;;16.48;73.33;99646.46;88923;1271;23371;-71
2022/08/07 06:59:31;;;;;;;6.00;4.90;;;;;;;16.49;73.37;99641.13;88786;1271;22549;-71
2022/08/07 07:01:35;;;;;;;7.40;4.70;;;;;;;16.47;73.38;99643.92;88569;1271;98976;-72
2022/08/07 07:03:40;;;;;;;11.90;4.80;;;;;;;16.46;73.43;99644.84;88646;1272;26010;-72
2022/08/07 07:05:42;;;;;;;4.90;4.40;;;;;;;16.44;73.46;99644.27;88755;1271;23616;-71
2022/08/07 07:07:45;;;;;;;4.90;4.30;;;;;;;16.43;73.37;99645.04;88541;1272;100116;-74
2022/08/07 07:09:48;;;;;;;4.00;3.60;;;;;;;16.44;73.35;99645.16;88676;1271;24340;-72
2022/08/07 07:12:23;;;;;;;6.10;3.90;;;;;;;16.43;73.26;99643.61;88829;1271;22551;-72
2022/08/07 07:14:28;;;;;;;6.20;3.90;;;;;;;16.43;73.18;99645.90;88608;1271;100701;-72
2022/08/07 07:16:35;;;;;;;6.60;4.30;;;;;;;16.46;73.28;99645.04;88669;1271;22866;-73
2022/08/07 07:18:46;;;;;;;5.60;3.50;;;;;;;16.49;73.23;99647.00;88765;1274;22998;-73
2022/08/07 07:20:56;;;;;;;10.30;4.90;;;;;;;16.50;73.13;99641.94;89112;1271;98306;-72
2022/08/07 07:22:59;;;;;;;12.40;3.30;;;;;;;16.53;73.06;99645.16;88727;1271;22669;-72
2022/08/07 07:25:06;;;;;;;7.80;3.50;;;;;;;16.54;72.86;99644.18;88599;1270;99247;-73
2022/08/07 07:27:11;;;;;;;5.20;3.80;;;;;;;16.55;72.88;99645.75;89593;1271;22629;-72
2022/08/07 07:29:16;;;;;;;4.00;3.20;;;;;;;16.57;72.85;99641.16;88538;1274;22583;-72
2022/08/07 07:31:50;;;;;;;10.10;3.40;;;;;;;16.61;72.78;99644.83;88547;1271;99051;-71
2022/08/07 07:33:57;;;;;;;7.50;3.40;;;;;;;16.67;72.68;99641.98;88638;1271;22617;-72
2022/08/07 07:36:00;;;;;;;6.30;3.00;;;;;;;16.70;72.57;99641.95;88690;1271;24118;-72
2022/08/07 07:38:04;;;;;;;6.70;2.90;;;;;;;16.77;72.59;99639.76;88520;1274;99038;-72
2022/08/07 07:40:14;;;;;;;7.40;2.80;;;;;;;16.84;72.46;99638.40;88590;1274;22562;-71
2022/08/07 07:42:18;;;;;;;4.00;3.20;;;;;;;16.92;72.42;99639.55;88698;1271;22640;-72
2022/08/07 07:44:21;;;;;;;5.30;2.60;;;;;;;16.98;72.49;99642.14;88654;1271;99168;-72
2022/08/07 07:46:25;;;;;;;4.30;2.50;;;;;;;17.05;72.17;99642.79;88633;1271;22609;-72
2022/08/07 07:48:29;;;;;;;7.00;3.10;;;;;;;17.12;72.13;99640.36;88745;1271;24255;-72
2022/08/07 07:50:31;;;;;;;2.60;2.20;;;;;;;17.17;72.12;99642.04;88568;1274;99840;-73
2022/08/07 07:52:35;;;;;;;2.60;2.30;;;;;;;17.24;72.00;99644.05;88751;1271;22713;-73
2022/08/07 07:54:38;;;;;;;4.40;2.60;;;;;;;17.33;71.70;99644.20;88667;1274;22626;-72
2022/08/07 07:56:41;;;;;;;5.00;2.30;;;;;;;17.41;71.62;99645.11;88595;1271;99233;-72
2022/08/07 07:58:44;;;;;;;2.00;1.70;;;;;;;17.49;71.29;99645.08;88674;1272;25020;-72
2022/08/07 08:00:48;;;;;;;2.90;2.60;;;;;;;17.57;71.02;99644.23;88730;1271;22674;-71
2022/08/07 08:02:55;;;;;;;3.50;2.00;;;;;;;17.64;70.95;99643.02;88621;1271;100563;-72
2022/08/07 08:05:00;;;;;;;4.40;2.10;;;;;;;17.72;70.54;99642.33;88819;1274;22566;-72
2022/08/07 08:07:03;;;;;;;1.80;1.60;;;;;;;17.77;70.50;99635.92;88724;1271;108699;-73
2022/08/07 08:09:07;;;;;;;18.10;1.90;;;;;;;17.84;70.26;99640.77;88605;1274;22784;-72
2022/08/07 08:11:10;;;;;;;3.50;1.60;;;;;;;17.91;70.23;99640.71;89288;1271;22630;-70
2022/08/07 08:13:14;;;;;;;4.10;1.70;;;;;;;17.97;69.87;99646.17;88749;1271;99352;-71
2022/08/07 08:15:16;;;;;;;3.20;1.60;;;;;;;17.97;69.68;99646.34;88809;1271;25314;-71
2022/08/07 08:17:19;;;;;;;3.10;1.40;;;;;;;17.99;69.52;99644.28;88568;1274;22817;-73
2022/08/07 08:19:26;;;;;;;3.20;1.60;;;;;;;17.94;69.36;99642.34;88671;1271;99440;-72
2022/08/07 08:28:38;;;;;;;1.90;1.70;;;;;;;18.03;69.31;99642.20;88694;1271;24265;-73
2022/08/07 08:30:42;;;;;;;3.80;1.90;;;;;;;18.19;69.52;99638.30;88774;1271;25118;-70
2022/08/07 08:32:50;;;;;;;2.00;1.80;;;;;;;18.40;69.56;99642.16;88770;1271;99040;-71
2022/08/07 08:34:56;;;;;;;6.90;1.90;;;;;;;18.63;69.40;99646.27;88639;1274;24205;-72
2022/08/07 08:37:02;;;;;;;7.00;1.90;;;;;;;18.84;69.20;99642.65;88683;1273;22908;-71
2022/08/07 08:39:07;;;;;;;2.80;1.80;;;;;;;19.05;69.20;99640.80;88637;1271;22712;-71
2022/08/07 08:41:46;;;;;;;4.00;1.70;;;;;;;19.23;68.92;99638.74;88682;1271;22626;-72
2022/08/07 08:44:42;;;;;;;2.10;1.90;;;;;;;19.47;68.86;99633.80;88654;1270;99566;-72
2022/08/07 08:46:55;;;;;;;3.20;1.80;;;;;;;19.76;68.21;99629.52;88648;1271;26006;-72
2022/08/07 08:49:24;;;;;;;2.50;1.90;;;;;;;19.81;67.60;99634.43;88692;1271;22606;-71
2022/08/07 08:51:46;;;;;;;2.50;1.70;;;;;;;19.76;67.71;99632.17;88547;1274;22629;-73
2022/08/07 08:53:56;;;;;;;4.20;1.80;;;;;;;19.90;67.93;99631.84;88653;1271;25392;-72
2022/08/07 08:56:14;;;;;;;3.60;1.50;;;;;;;20.08;67.82;99634.00;88624;1271;100214;-72
2022/08/07 08:58:24;;;;;;;3.90;1.90;;;;;;;20.30;67.70;99635.19;88643;1271;22589;-72
2022/08/07 09:00:31;;;;;;;4.10;1.90;;;;;;;20.36;67.08;99640.45;88677;1268;26101;-72
2022/08/07 09:02:43;;;;;;;2.90;1.90;;;;;;;20.39;67.30;99630.71;89265;1271;99560;-71
2022/08/07 09:05:09;;;;;;;1.80;1.60;;;;;;;20.45;66.88;99628.85;88888;1271;24442;-71
2022/08/07 09:07:43;;;;;;;4.10;1.80;;;;;;;20.68;67.01;99627.90;88641;1271;100034;-73
2022/08/07 09:10:10;;;;;;;5.30;1.80;;;;;;;20.90;66.70;99622.41;88744;1271;22729;-71
2022/08/07 09:12:51;;;;;;;3.90;1.90;;;;;;;21.01;66.70;99623.66;88789;1271;24357;-72
2022/08/07 09:15:10;;;;;;;4.30;2.00;;;;;;;21.08;66.10;99621.73;88786;1271;99536;-72
2022/08/07 09:17:29;;;;;;;9.20;1.90;;;;;;;21.07;66.18;99625.14;88708;1271;23326;-71
2022/08/07 09:20:04;;;;;;;6.30;2.20;;;;;;;21.00;65.40;99629.63;88784;1271;97858;-72
2022/08/07 09:22:33;;;;;;;6.00;2.50;;;;;;;20.71;65.34;99623.44;88870;1271;22545;-71
2022/08/07 09:24:56;;;;;;;5.10;2.50;;;;;;;20.58;65.26;99619.40;88851;1271;22578;-72
2022/08/07 09:27:15;;;;;;;8.10;2.10;;;;;;;20.45;65.49;99613.11;89109;1271;97828;-73
2022/08/07 09:29:40;;;;;;;6.70;2.40;;;;;;;20.33;65.58;99606.44;88647;1271;22693;-72
2022/08/07 09:31:47;;;;;;;4.60;2.30;;;;;;;20.32;65.77;99607.89;88643;1271;98891;-69
2022/08/07 09:34:10;;;;;;;5.30;2.00;;;;;;;20.34;65.56;99609.00;88674;1271;22900;-72
2022/08/07 09:36:21;;;;;;;4.80;2.30;;;;;;;20.27;65.32;99604.91;88610;1274;24403;-72
2022/08/07 09:38:52;;;;;;;4.00;2.30;;;;;;;20.18;65.20;99600.04;88535;1271;99169;-71
2022/08/07 09:40:59;;;;;;;4.90;1.90;;;;;;;20.10;65.24;99607.80;88652;1274;25858;-72
2022/08/07 09:43:33;;;;;;;3.40;1.50;;;;;;;20.13;65.20;99609.21;88645;1271;99073;-71
2022/08/07 09:45:46;;;;;;;3.80;1.80;;;;;;;20.14;65.00;99604.33;88650;1271;22554;-72
2022/08/07 09:48:12;;;;;;;6.50;1.50;;;;;;;20.10;64.95;99603.40;88675;1271;22585;-70
2022/08/07 09:50:25;;;;;;;2.50;1.30;;;;;;;20.08;64.96;99599.77;88543;1272;98708;-72
2022/08/07 09:53:01;;;;;;;6.50;1.40;;;;;;;20.06;64.95;99594.73;89193;1271;22575;-72
2022/08/07 09:55:30;;;;;;;3.80;1.60;;;;;;;20.15;64.94;99594.61;88398;1273;99374;-73
2022/08/07 09:57:53;;;;;;;4.80;1.70;;;;;;;20.32;64.69;99591.85;88446;1275;24250;-72
2022/08/07 10:00:15;;;;;;;3.40;1.70;;;;;;;20.49;64.32;99587.27;88689;1271;24945;-72
2022/08/07 10:02:50;;;;;;;3.00;1.70;;;;;;;20.66;64.29;99585.22;88445;1271;99640;-73